Time;durP1;ratioP1;P1;durP2;ratioP2;P2;SDS_P1;SDS_P2;PMS_P1;PMS_P2;Temp;Humidity;BMP_temperature;BMP_pressure;BME280_temperature;BME280_humidity;BME280_pressure;Samples;Min_cycle;Max_cycle;Signal;HPM_P1;HPM_P2
2023/05/24 00:02:52;;;;;;;;;;;;;;;21.88;50.63;95822.78;10473659;28;1902;-69
2023/05/24 00:07:52;;;;;;;;;;;;;;;21.89;50.73;95813.78;10474098;28;1858;-70
2023/05/24 00:12:52;;;;;;;;;;;;;;;21.88;50.76;95812.97;10480709;28;1899;-70
2023/05/24 00:17:52;;;;;;;;;;;;;;;21.88;50.91;95807.69;10472749;28;2049;-69
2023/05/24 00:22:53;;;;;;;;;;;;;;;21.89;50.77;95816.41;10464615;28;2084;-68
2023/05/24 00:27:53;;;;;;;;;;;;;;;21.88;50.81;95797.16;10468152;28;1913;-69
2023/05/24 00:32:53;;;;;;;;;;;;;;;21.88;50.76;95801.66;10484310;28;1917;-67
2023/05/24 00:37:53;;;;;;;;;;;;;;;21.87;50.88;95792.16;10481046;28;1922;-70
2023/05/24 00:42:54;;;;;;;;;;;;;;;21.88;50.54;95802.41;10471565;28;4394;-69
2023/05/24 00:47:54;;;;;;;;;;;;;;;21.88;50.67;95798.22;10476916;28;2219;-69
2023/05/24 00:52:54;;;;;;;;;;;;;;;21.88;50.48;95795.59;10469741;28;2021;-69
2023/05/24 00:57:57;;;;;;;;;;;;;;;21.88;50.54;95801.66;10464189;28;2037;-70
2023/05/24 01:02:59;;;;;;;;;;;;;;;21.87;50.41;95800.06;10477232;28;1984;-69
2023/05/24 01:08:01;;;;;;;;;;;;;;;21.86;50.69;95794.00;10479924;28;2126;-69
2023/05/24 01:13:01;;;;;;;;;;;;;;;21.88;50.53;95785.03;10483116;28;2187;-69
2023/05/24 01:18:04;;;;;;;;;;;;;;;21.87;50.44;95784.22;10477806;28;2183;-69
2023/05/24 01:23:08;;;;;;;;;;;;;;;21.86;50.68;95778.16;10482039;28;1984;-69
2023/05/24 01:28:08;;;;;;;;;;;;;;;21.87;50.65;95781.59;10479656;28;2049;-71
2023/05/24 01:33:08;;;;;;;;;;;;;;;21.88;50.56;95782.38;10460726;28;2035;-69
2023/05/24 01:38:11;;;;;;;;;;;;;;;21.87;50.46;95784.22;10479250;28;1970;-69
2023/05/24 01:43:21;;;;;;;;;;;;;;;21.86;50.57;95788.72;10478120;28;4486;-69
2023/05/24 01:48:23;;;;;;;;;;;;;;;21.87;50.22;95784.22;10481009;28;1930;-69
2023/05/24 01:53:25;;;;;;;;;;;;;;;21.85;50.42;95786.38;10458952;28;1977;-69
2023/05/24 01:58:25;;;;;;;;;;;;;;;21.86;50.30;95787.97;10463634;28;1992;-69
2023/05/24 02:03:25;;;;;;;;;;;;;;;21.86;50.48;95782.69;10476579;28;1996;-69
2023/05/24 02:08:25;;;;;;;;;;;;;;;21.85;50.49;95775.81;10479265;28;1921;-69
2023/05/24 02:13:26;;;;;;;;;;;;;;;21.84;50.29;95785.56;10477862;28;1969;-69
2023/05/24 02:18:26;;;;;;;;;;;;;;;21.84;50.45;95780.31;10481909;28;1980;-69
2023/05/24 02:23:26;;;;;;;;;;;;;;;21.86;50.35;95782.69;10472910;28;2218;-69
2023/05/24 02:28:28;;;;;;;;;;;;;;;21.84;50.33;95784.81;10481896;28;1902;-68
2023/05/24 02:33:29;;;;;;;;;;;;;;;21.84;50.31;95782.19;10477677;28;2159;-69
2023/05/24 02:38:30;;;;;;;;;;;;;;;21.83;50.12;95783.22;10479316;28;2199;-69
2023/05/24 02:43:30;;;;;;;;;;;;;;;21.80;49.97;95778.50;10485407;28;4434;-70
2023/05/24 02:48:31;;;;;;;;;;;;;;;21.83;50.09;95777.94;10481978;28;2358;-68
2023/05/24 02:53:31;;;;;;;;;;;;;;;21.83;50.07;95772.66;10482552;28;2008;-68
2023/05/24 02:58:31;;;;;;;;;;;;;;;21.82;50.04;95765.84;10472826;28;1996;-69
2023/05/24 03:03:32;;;;;;;;;;;;;;;21.83;49.86;95764.75;10473461;28;1977;-68
2023/05/24 03:08:32;;;;;;;;;;;;;;;21.82;50.00;95769.25;10478263;28;1873;-69
2023/05/24 03:13:33;;;;;;;;;;;;;;;21.82;50.00;95763.19;10473489;28;1914;-69
2023/05/24 03:18:33;;;;;;;;;;;;;;;21.81;50.08;95765.03;10471330;28;1991;-68
2023/05/24 03:23:33;;;;;;;;;;;;;;;21.82;49.70;95771.13;10476847;28;1976;-69
2023/05/24 03:28:34;;;;;;;;;;;;;;;21.83;50.13;95775.31;10475235;28;2049;-68
2023/05/24 03:33:35;;;;;;;;;;;;;;;21.81;49.74;95780.88;10470615;28;9037;-69
2023/05/24 03:38:35;;;;;;;;;;;;;;;21.81;49.78;95780.88;10476912;28;8266;-68
2023/05/24 03:43:35;;;;;;;;;;;;;;;21.81;49.79;95782.69;10476891;28;8376;-68
2023/05/24 03:48:35;;;;;;;;;;;;;;;21.82;49.65;95786.94;10469397;28;1992;-68
2023/05/24 03:53:36;;;;;;;;;;;;;;;21.80;49.82;95784.53;10472689;28;8353;-68
2023/05/24 03:58:36;;;;;;;;;;;;;;;21.80;49.83;95795.09;10474394;28;1958;-69
2023/05/24 04:03:37;;;;;;;;;;;;;;;21.82;49.74;95802.78;10467386;28;1973;-69
2023/05/24 04:08:38;;;;;;;;;;;;;;;21.81;49.67;95795.88;10480282;28;5131;-69
2023/05/24 04:13:38;;;;;;;;;;;;;;;21.81;49.76;95801.16;10481168;28;1976;-69
2023/05/24 04:18:38;;;;;;;;;;;;;;;21.79;49.46;95801.44;10485314;28;1906;-69
2023/05/24 04:23:38;;;;;;;;;;;;;;;21.79;49.29;95795.38;10465940;28;1962;-68
2023/05/24 04:28:39;;;;;;;;;;;;;;;21.80;49.62;95802.25;10481312;28;1936;-69
2023/05/24 04:33:40;;;;;;;;;;;;;;;21.79;49.50;95798.00;10479843;28;1897;-68
2023/05/24 04:38:40;;;;;;;;;;;;;;;21.79;49.37;95798.81;10479186;28;1949;-69
2023/05/24 04:43:40;;;;;;;;;;;;;;;21.79;49.40;95800.66;10475596;28;8082;-69
2023/05/24 04:48:41;;;;;;;;;;;;;;;21.80;49.15;95802.25;10472729;28;1960;-68
2023/05/24 04:53:41;;;;;;;;;;;;;;;21.79;49.26;95813.84;10481451;28;1952;-69
2023/05/24 04:58:42;;;;;;;;;;;;;;;21.78;49.44;95813.06;10479013;28;1898;-69
2023/05/24 05:03:44;;;;;;;;;;;;;;;21.78;49.31;95815.69;10477150;28;1981;-69
2023/05/24 05:08:44;;;;;;;;;;;;;;;21.78;49.52;95817.56;10475872;28;1960;-68
2023/05/24 05:13:45;;;;;;;;;;;;;;;21.77;49.47;95816.78;10481302;28;1953;-68
2023/05/24 05:18:45;;;;;;;;;;;;;;;21.78;49.59;95817.56;10479483;28;2202;-66
2023/05/24 05:23:45;;;;;;;;;;;;;;;21.78;49.32;95820.97;10480019;28;1969;-67
2023/05/24 05:28:45;;;;;;;;;;;;;;;21.78;49.32;95822.84;10477783;28;1976;-74
2023/05/24 05:33:46;;;;;;;;;;;;;;;21.77;49.30;95822.06;10475315;28;1985;-67
2023/05/24 05:38:46;;;;;;;;;;;;;;;21.78;49.69;95820.22;10464488;28;2136;-68
2023/05/24 05:43:46;;;;;;;;;;;;;;;21.78;49.51;95813.06;10477028;28;5538;-68
2023/05/24 05:48:46;;;;;;;;;;;;;;;21.78;49.66;95810.41;10477525;28;2018;-69
2023/05/24 05:53:47;;;;;;;;;;;;;;;21.78;49.79;95813.06;10468925;28;1843;-70
2023/05/24 05:58:47;;;;;;;;;;;;;;;21.79;49.65;95803.28;10474706;28;1980;-66
2023/05/24 06:03:47;;;;;;;;;;;;;;;21.80;49.88;95803.00;10471365;28;1991;-67
2023/05/24 06:08:48;;;;;;;;;;;;;;;21.80;50.01;95804.88;10478251;28;1884;-67
2023/05/24 06:13:48;;;;;;;;;;;;;;;21.79;48.96;95793.53;10479404;28;1757;-67
2023/05/24 06:18:48;;;;;;;;;;;;;;;21.76;48.99;95794.06;10478615;28;1875;-66
2023/05/24 06:23:48;;;;;;;;;;;;;;;21.77;49.42;95794.88;10475094;28;1910;-65
2023/05/24 06:28:50;;;;;;;;;;;;;;;21.76;49.42;95796.72;10469581;28;1884;-65
2023/05/24 06:33:50;;;;;;;;;;;;;;;21.79;49.61;95798.00;10471064;28;1985;-66
2023/05/24 06:38:50;;;;;;;;;;;;;;;21.79;49.63;95798.00;10475138;28;2111;-66
2023/05/24 06:43:51;;;;;;;;;;;;;;;21.80;49.82;95805.66;10464622;28;5144;-65
2023/05/24 06:48:51;;;;;;;;;;;;;;;21.80;49.84;95802.25;10473287;28;1887;-66
2023/05/24 06:53:52;;;;;;;;;;;;;;;21.81;50.07;95811.72;10477430;28;1868;-67
2023/05/24 06:58:52;;;;;;;;;;;;;;;21.80;50.01;95813.56;10479050;28;1843;-66
2023/05/24 07:03:52;;;;;;;;;;;;;;;21.82;49.71;95813.34;10477284;28;1902;-66
2023/05/24 07:08:52;;;;;;;;;;;;;;;21.81;50.01;95817.00;10473452;28;1874;-67
2023/05/24 07:13:53;;;;;;;;;;;;;;;21.82;49.73;95816.72;10470945;28;1899;-67
2023/05/24 07:18:53;;;;;;;;;;;;;;;21.81;50.05;95819.63;10477436;28;1954;-67
2023/05/24 07:23:54;;;;;;;;;;;;;;;21.81;49.92;95820.47;10452052;28;1914;-67
2023/05/24 07:28:55;;;;;;;;;;;;;;;21.83;50.00;95825.44;10474775;28;1897;-67
2023/05/24 07:33:55;;;;;;;;;;;;;;;21.83;49.86;95820.16;10452691;28;2006;-66
2023/05/24 07:38:55;;;;;;;;;;;;;;;21.82;49.91;95818.59;10463356;28;1895;-66
2023/05/24 07:43:56;;;;;;;;;;;;;;;21.83;49.74;95830.72;10487395;28;5133;-67
2023/05/24 07:48:56;;;;;;;;;;;;;;;21.83;50.04;95822.81;10480119;28;1914;-66
2023/05/24 07:53:56;;;;;;;;;;;;;;;21.83;49.80;95820.16;10482938;28;1864;-66
2023/05/24 07:59:02;;;;;;;;;;;;;;;21.83;49.83;95826.25;10480172;28;1899;-66
2023/05/24 08:04:02;;;;;;;;;;;;;;;21.84;49.85;95829.66;10476014;28;1981;-66
2023/05/24 08:09:04;;;;;;;;;;;;;;;21.85;49.61;95834.66;10478916;28;1909;-62
2023/05/24 08:14:04;;;;;;;;;;;;;;;21.84;49.21;95834.94;10475603;28;1879;-61
2023/05/24 08:19:05;;;;;;;;;;;;;;;21.81;49.14;95823.09;10486492;28;1925;-63
2023/05/24 08:24:05;;;;;;;;;;;;;;;21.80;48.39;95836.53;10482269;28;1909;-63
2023/05/24 08:29:06;;;;;;;;;;;;;;;21.75;48.30;95840.00;10473323;28;2071;-63
2023/05/24 08:34:06;;;;;;;;;;;;;;;21.74;48.11;95848.22;10484336;28;1998;-63
2023/05/24 08:39:08;;;;;;;;;;;;;;;21.72;47.97;95845.06;10479709;28;1900;-63
2023/05/24 08:44:08;;;;;;;;;;;;;;;21.68;47.43;95844.03;10477638;28;1914;-64
2023/05/24 08:49:11;;;;;;;;;;;;;;;21.67;47.60;95847.75;10463281;28;1952;-66
2023/05/24 08:54:12;;;;;;;;;;;;;;;21.71;48.01;95854.03;10461545;28;1827;-65
2023/05/24 08:59:12;;;;;;;;;;;;;;;21.66;47.80;95852.22;10480587;28;1856;-65
2023/05/24 09:04:13;;;;;;;;;;;;;;;21.66;47.28;95856.69;10478052;28;1910;-65
2023/05/24 09:09:17;;;;;;;;;;;;;;;21.61;46.89;95848.84;10484110;28;1907;-65
2023/05/24 09:14:17;;;;;;;;;;;;;;;21.63;47.62;95852.78;10481360;28;1820;-64
2023/05/24 09:19:17;;;;;;;;;;;;;;;21.59;46.85;95857.06;10485991;28;1851;-64
2023/05/24 09:24:18;;;;;;;;;;;;;;;21.56;46.57;95856.78;10475901;28;2056;-64
2023/05/24 09:29:22;;;;;;;;;;;;;;;21.55;46.52;95852.59;10459882;28;1891;-64
2023/05/24 09:34:22;;;;;;;;;;;;;;;21.55;46.64;95856.03;10479552;28;1817;-64
2023/05/24 09:39:22;;;;;;;;;;;;;;;21.56;46.90;95851.53;10478263;28;1765;-64
2023/05/24 09:44:23;;;;;;;;;;;;;;;21.58;46.90;95863.38;10478117;28;5101;-64
2023/05/24 09:49:23;;;;;;;;;;;;;;;21.57;46.60;95866.28;10481593;28;1898;-64
2023/05/24 09:54:25;;;;;;;;;;;;;;;21.56;46.46;95859.44;10477924;28;1900;-67
2023/05/24 09:59:25;;;;;;;;;;;;;;;21.53;46.40;95860.00;10474024;28;1803;-67
2023/05/24 10:04:33;;;;;;;;;;;;;;;21.52;45.96;95864.47;10460738;28;1970;-67
2023/05/24 10:09:33;;;;;;;;;;;;;;;21.49;45.84;95864.25;10479698;28;1875;-67
2023/05/24 10:14:35;;;;;;;;;;;;;;;21.49;45.85;95867.69;10478310;28;2085;-66
2023/05/24 10:19:35;;;;;;;;;;;;;;;21.49;46.11;95869.53;10476575;28;2056;-64
2023/05/24 10:24:37;;;;;;;;;;;;;;;21.45;45.65;95871.91;10458762;28;1910;-65
2023/05/24 10:29:53;;;;;;;;;;;;;;;21.45;45.71;95882.47;10481667;28;1843;-65
2023/05/24 10:34:54;;;;;;;;;;;;;;;21.44;45.62;95875.63;10459833;28;2046;-67
2023/05/24 10:39:54;;;;;;;;;;;;;;;21.42;45.57;95874.31;10460771;28;1903;-64
2023/05/24 10:44:55;;;;;;;;;;;;;;;21.33;44.87;95868.06;10465618;28;4578;-64
2023/05/24 10:49:57;;;;;;;;;;;;;;;21.22;45.04;95871.84;10482139;28;1500;-63
2023/05/24 10:55:04;;;;;;;;;;;;;;;21.15;44.51;95873.97;10474510;28;1516;-64
2023/05/24 11:00:26;;;;;;;;;;;;;;;21.14;45.03;95877.69;10471061;28;1805;-64
2023/05/24 11:05:45;;;;;;;;;;;;;;;21.24;45.72;95880.25;10475296;28;1914;-63
2023/05/24 11:10:45;;;;;;;;;;;;;;;21.31;46.39;95872.84;10474356;28;1966;-63
2023/05/24 11:15:49;;;;;;;;;;;;;;;21.35;46.67;95871.22;10478892;28;2014;-62
2023/05/24 11:20:50;;;;;;;;;;;;;;;21.41;47.21;95872.75;10477625;28;1888;-63
2023/05/24 11:25:52;;;;;;;;;;;;;;;21.46;47.30;95872.72;10475614;28;2054;-63
2023/05/24 11:30:52;;;;;;;;;;;;;;;21.49;47.64;95870.31;10478423;28;1890;-63
2023/05/24 11:35:53;;;;;;;;;;;;;;;21.52;47.77;95864.47;10478895;28;1887;-63
2023/05/24 11:40:53;;;;;;;;;;;;;;;21.56;48.25;95862.06;10478151;28;4487;-62
2023/05/24 11:45:53;;;;;;;;;;;;;;;21.57;48.28;95863.66;10474747;28;1990;-63
2023/05/24 11:50:54;;;;;;;;;;;;;;;21.60;48.41;95873.63;10475058;28;1865;-63
2023/05/24 11:55:54;;;;;;;;;;;;;;;21.61;48.64;95873.38;10475416;28;1839;-63
2023/05/24 12:00:54;;;;;;;;;;;;;;;21.62;48.82;95867.03;10469009;28;1884;-63
2023/05/24 12:05:55;;;;;;;;;;;;;;;21.63;48.80;95863.34;10473300;28;2177;-62
2023/05/24 12:10:55;;;;;;;;;;;;;;;21.66;49.13;95860.13;10471932;28;2008;-62
2023/05/24 12:15:56;;;;;;;;;;;;;;;21.64;49.18;95864.91;10459013;28;1986;-62
2023/05/24 12:20:57;;;;;;;;;;;;;;;21.69;49.22;95874.63;10471141;28;1840;-62
2023/05/24 12:25:58;;;;;;;;;;;;;;;21.69;49.18;95872.00;10482031;28;1952;-62
2023/05/24 12:30:58;;;;;;;;;;;;;;;21.69;49.54;95872.78;10482285;28;1823;-64
2023/05/24 12:35:59;;;;;;;;;;;;;;;21.71;49.90;95877.78;10462527;28;1784;-65
2023/05/24 12:40:59;;;;;;;;;;;;;;;21.72;49.82;95882.00;10480410;28;4562;-64
2023/05/24 12:46:00;;;;;;;;;;;;;;;21.72;49.77;95871.44;10476952;28;1918;-64
2023/05/24 12:51:01;;;;;;;;;;;;;;;21.71;49.63;95880.41;10481524;28;1838;-64
2023/05/24 12:56:02;;;;;;;;;;;;;;;21.73;49.98;95878.28;10480567;28;1808;-65
2023/05/24 13:01:02;;;;;;;;;;;;;;;21.73;50.03;95854.53;10471079;28;1887;-65
2023/05/24 13:06:02;;;;;;;;;;;;;;;21.72;49.82;95855.63;10477668;28;1917;-64
2023/05/24 13:11:03;;;;;;;;;;;;;;;21.72;49.86;95856.38;10460697;28;2059;-64
2023/05/24 13:16:07;;;;;;;;;;;;;;;21.72;49.75;95856.38;10462564;28;1959;-64
2023/05/24 13:21:07;;;;;;;;;;;;;;;21.71;49.79;95846.91;10482605;28;1899;-65
2023/05/24 13:26:08;;;;;;;;;;;;;;;21.71;49.75;95846.91;10480018;28;2162;-64
2023/05/24 13:31:08;;;;;;;;;;;;;;;21.71;49.49;95856.66;10478596;28;2077;-65
2023/05/24 13:36:08;;;;;;;;;;;;;;;21.72;49.68;95860.91;10483763;28;1829;-65
2023/05/24 13:41:09;;;;;;;;;;;;;;;21.71;49.52;95854.81;10474355;28;4594;-65
2023/05/24 13:46:09;;;;;;;;;;;;;;;21.72;49.77;95858.25;10477788;28;1906;-65
2023/05/24 13:51:09;;;;;;;;;;;;;;;21.72;49.74;95858.25;10480836;28;1891;-65
2023/05/24 13:56:10;;;;;;;;;;;;;;;21.73;49.85;95859.81;10477170;28;1879;-65
2023/05/24 14:01:10;;;;;;;;;;;;;;;21.74;49.91;95864.03;10482868;28;2076;-64
2023/05/24 14:06:10;;;;;;;;;;;;;;;21.74;49.79;95864.81;10477946;28;2065;-64
2023/05/24 14:11:13;;;;;;;;;;;;;;;21.74;50.00;95871.97;10476488;28;1926;-64
2023/05/24 14:16:13;;;;;;;;;;;;;;;21.72;49.71;95866.94;10478462;28;1974;-65
2023/05/24 14:21:14;;;;;;;;;;;;;;;21.73;49.71;95870.38;10481331;28;1753;-65
2023/05/24 14:26:14;;;;;;;;;;;;;;;21.72;49.80;95866.19;10474044;28;1965;-65
2023/05/24 14:31:14;;;;;;;;;;;;;;;21.72;50.00;95861.66;10458355;28;2049;-64
2023/05/24 14:36:15;;;;;;;;;;;;;;;21.72;49.78;95860.91;10479210;28;1850;-65
2023/05/24 14:41:15;;;;;;;;;;;;;;;21.71;49.66;95859.31;10474444;28;4756;-63
2023/05/24 14:46:15;;;;;;;;;;;;;;;21.72;49.82;95858.25;10470430;28;1960;-63
2023/05/24 14:51:15;;;;;;;;;;;;;;;21.73;50.07;95862.47;10474685;28;1863;-64
2023/05/24 14:56:16;;;;;;;;;;;;;;;21.71;49.78;95852.19;10475528;28;2052;-64
2023/05/24 15:01:16;;;;;;;;;;;;;;;21.72;49.75;95855.63;10477236;28;2108;-64
2023/05/24 15:06:17;;;;;;;;;;;;;;;21.73;49.71;95860.59;10475151;28;1969;-64
2023/05/24 15:11:18;;;;;;;;;;;;;;;21.73;49.94;95847.41;10473937;28;1803;-64
2023/05/24 15:16:18;;;;;;;;;;;;;;;21.74;50.00;95837.66;10475391;28;1899;-64
2023/05/24 15:21:19;;;;;;;;;;;;;;;21.76;50.01;95840.81;10477735;28;1684;-64
2023/05/24 15:26:19;;;;;;;;;;;;;;;21.77;50.32;95834.44;10465015;28;1969;-63
2023/05/24 15:31:20;;;;;;;;;;;;;;;21.76;50.71;95830.25;10471248;28;1972;-62
2023/05/24 15:36:20;;;;;;;;;;;;;;;21.77;50.51;95831.81;10447236;28;1860;-64
2023/05/24 15:41:21;;;;;;;;;;;;;;;21.78;50.65;95825.47;10471555;28;4590;-63
2023/05/24 15:46:21;;;;;;;;;;;;;;;21.78;50.57;95828.13;10470785;28;1985;-63
2023/05/24 15:51:22;;;;;;;;;;;;;;;21.77;50.60;95822.06;10470015;28;1834;-63
2023/05/24 15:56:22;;;;;;;;;;;;;;;21.78;50.50;95822.84;10471502;28;2115;-63
2023/05/24 16:01:22;;;;;;;;;;;;;;;21.78;50.64;95822.84;10480430;28;1842;-64
2023/05/24 16:06:22;;;;;;;;;;;;;;;21.79;50.69;95814.63;10477296;28;1981;-64
2023/05/24 16:11:23;;;;;;;;;;;;;;;21.78;50.61;95822.84;10479700;28;1948;-64
2023/05/24 16:16:24;;;;;;;;;;;;;;;21.77;50.69;95821.25;10474668;28;1903;-64
2023/05/24 16:21:25;;;;;;;;;;;;;;;21.78;50.71;95814.94;10470660;28;1887;-65
2023/05/24 16:26:25;;;;;;;;;;;;;;;21.78;50.56;95809.66;10484547;28;1981;-64
2023/05/24 16:31:26;;;;;;;;;;;;;;;21.77;50.19;95800.94;10482814;28;1728;-65
2023/05/24 16:36:26;;;;;;;;;;;;;;;21.76;50.37;95803.88;10479489;28;1855;-64
2023/05/24 16:41:33;;;;;;;;;;;;;;;21.75;50.73;95808.34;10481237;28;4582;-64
2023/05/24 16:46:33;;;;;;;;;;;;;;;21.78;50.62;95809.66;10475047;28;1973;-66
2023/05/24 16:51:34;;;;;;;;;;;;;;;21.76;50.65;95793.31;10481145;28;1893;-63
2023/05/24 16:56:35;;;;;;;;;;;;;;;21.77;50.54;95805.44;10474807;28;1820;-63
2023/05/24 17:01:36;;;;;;;;;;;;;;;21.77;50.44;95808.06;10462131;28;1903;-64
2023/05/24 17:06:36;;;;;;;;;;;;;;;21.77;50.50;95806.22;10484424;28;2028;-64
2023/05/24 17:11:37;;;;;;;;;;;;;;;21.76;50.56;95817.06;10474477;28;1843;-64
2023/05/24 17:16:37;;;;;;;;;;;;;;;21.76;50.78;95814.41;10481929;28;1883;-66
2023/05/24 17:21:37;;;;;;;;;;;;;;;21.76;50.23;95817.06;10485009;28;1684;-64
2023/05/24 17:26:39;;;;;;;;;;;;;;;21.72;50.59;95821.31;10483818;28;1978;-64
2023/05/24 17:31:40;;;;;;;;;;;;;;;21.75;50.59;95823.38;10486182;28;2045;-65
2023/05/24 17:36:40;;;;;;;;;;;;;;;21.74;50.35;95827.09;10484690;28;2039;-63
2023/05/24 17:41:40;;;;;;;;;;;;;;;21.75;50.28;95832.09;10482850;28;4806;-65
2023/05/24 17:46:41;;;;;;;;;;;;;;;21.75;50.60;95831.31;10484154;28;1835;-65
2023/05/24 17:51:41;;;;;;;;;;;;;;;21.72;50.52;95829.25;10476441;28;2075;-64
2023/05/24 17:56:41;;;;;;;;;;;;;;;21.74;50.36;95829.75;10477246;28;1820;-64
2023/05/24 18:01:43;;;;;;;;;;;;;;;21.73;50.60;95825.53;10476100;28;1905;-65
2023/05/24 18:06:44;;;;;;;;;;;;;;;21.72;50.45;95816.03;10478191;28;1855;-63
2023/05/24 18:11:44;;;;;;;;;;;;;;;21.71;50.58;95827.66;10471388;28;1918;-65
2023/05/24 18:16:44;;;;;;;;;;;;;;;21.72;50.81;95845.06;10479290;28;2017;-65
2023/05/24 18:21:45;;;;;;;;;;;;;;;21.71;50.55;95865.38;10472386;28;1968;-65
2023/05/24 18:26:45;;;;;;;;;;;;;;;21.72;50.40;95852.97;10458530;28;1816;-65
2023/05/24 18:31:46;;;;;;;;;;;;;;;21.72;50.60;95860.91;10479522;28;1908;-65
2023/05/24 18:36:46;;;;;;;;;;;;;;;21.73;50.78;95878.28;10473250;28;1728;-65
2023/05/24 18:41:46;;;;;;;;;;;;;;;21.72;50.83;95884.66;10457021;28;4607;-65
2023/05/24 18:46:47;;;;;;;;;;;;;;;21.74;50.91;95890.44;10475319;28;2098;-66
2023/05/24 18:51:47;;;;;;;;;;;;;;;21.75;50.81;95886.72;10474553;28;1866;-65
2023/05/24 18:56:47;;;;;;;;;;;;;;;21.75;50.97;95884.88;10475615;28;1856;-65
2023/05/24 19:01:47;;;;;;;;;;;;;;;21.75;50.55;95892.00;10478243;28;1931;-64
2023/05/24 19:06:48;;;;;;;;;;;;;;;21.78;50.54;95896.72;10483680;28;1879;-64
2023/05/24 19:11:48;;;;;;;;;;;;;;;21.78;49.98;95896.72;10481339;28;1962;-63
2023/05/24 19:16:49;;;;;;;;;;;;;;;21.79;49.86;95900.94;10479509;28;1832;-63
2023/05/24 19:21:49;;;;;;;;;;;;;;;21.80;50.16;95902.50;10475635;28;1916;-64
2023/05/24 19:26:49;;;;;;;;;;;;;;;21.81;49.94;95907.53;10474897;28;1868;-64
2023/05/24 19:31:50;;;;;;;;;;;;;;;21.81;50.01;95906.72;10474048;28;1895;-64
2023/05/24 19:36:50;;;;;;;;;;;;;;;21.82;49.78;95914.38;10478587;28;1839;-64
2023/05/24 19:41:51;;;;;;;;;;;;;;;21.82;49.68;95926.81;10468500;28;4792;-64
2023/05/24 19:46:51;;;;;;;;;;;;;;;21.82;49.58;95930.22;10458420;28;1890;-65
2023/05/24 19:51:51;;;;;;;;;;;;;;;21.82;49.68;95940.75;10461415;28;1877;-65
2023/05/24 19:56:53;;;;;;;;;;;;;;;21.81;49.60;95941.84;10454773;28;1871;-64
2023/05/24 20:01:54;;;;;;;;;;;;;;;21.82;49.73;95945.28;10477672;28;1982;-67
2023/05/24 20:06:54;;;;;;;;;;;;;;;21.81;49.54;95944.47;10471897;28;1896;-67
2023/05/24 20:11:54;;;;;;;;;;;;;;;21.81;49.73;95933.09;10474989;28;1847;-66
2023/05/24 20:16:55;;;;;;;;;;;;;;;21.81;49.54;95931.28;10476692;28;1931;-69
2023/05/24 20:21:57;;;;;;;;;;;;;;;21.82;49.50;95932.09;10476329;28;1989;-66
2023/05/24 20:26:57;;;;;;;;;;;;;;;21.82;49.59;95935.47;10475787;28;1867;-66
2023/05/24 20:31:57;;;;;;;;;;;;;;;21.82;49.67;95924.94;10460014;28;1815;-67
2023/05/24 20:36:57;;;;;;;;;;;;;;;21.83;49.28;95920.44;10474220;28;2108;-68
2023/05/24 20:41:58;;;;;;;;;;;;;;;21.82;49.50;95917.00;10475773;28;4633;-68
2023/05/24 20:46:58;;;;;;;;;;;;;;;21.83;49.26;95915.16;10457550;28;1890;-67
2023/05/24 20:51:58;;;;;;;;;;;;;;;21.83;49.33;95925.72;10481724;28;1824;-67
2023/05/24 20:56:58;;;;;;;;;;;;;;;21.83;49.34;95917.81;10481336;28;1856;-68
2023/05/24 21:01:59;;;;;;;;;;;;;;;21.83;49.19;95931.00;10481068;28;1979;-68
2023/05/24 21:06:59;;;;;;;;;;;;;;;21.81;49.10;95926.00;10485435;28;1815;-68
2023/05/24 21:12:00;;;;;;;;;;;;;;;21.81;49.41;95931.28;10479993;28;1875;-67
2023/05/24 21:17:00;;;;;;;;;;;;;;;21.80;49.46;95936.81;10474298;28;1988;-68
2023/05/24 21:22:00;;;;;;;;;;;;;;;21.79;49.67;95937.88;10483324;28;1911;-64
2023/05/24 21:27:01;;;;;;;;;;;;;;;21.78;49.67;95942.34;10475392;28;2053;-66
2023/05/24 21:32:01;;;;;;;;;;;;;;;21.79;49.71;95940.50;10473714;28;1917;-67
2023/05/24 21:37:01;;;;;;;;;;;;;;;21.76;50.05;95941.06;10478627;28;2018;-68
2023/05/24 21:42:02;;;;;;;;;;;;;;;21.74;50.14;95946.59;10481772;28;4586;-67
2023/05/24 21:47:02;;;;;;;;;;;;;;;21.74;49.97;95945.84;10478052;28;2046;-68
2023/05/24 21:52:02;;;;;;;;;;;;;;;21.72;50.31;95940.06;10479293;28;1903;-67
2023/05/24 21:57:02;;;;;;;;;;;;;;;21.71;50.26;95952.44;10485360;28;1871;-67
2023/05/24 22:02:03;;;;;;;;;;;;;;;21.71;50.00;95949.81;10478051;28;1928;-68
2023/05/24 22:07:03;;;;;;;;;;;;;;;21.70;50.10;95953.50;10484738;28;1882;-68
2023/05/24 22:12:03;;;;;;;;;;;;;;;21.68;49.98;95950.34;10476270;28;1962;-68
2023/05/24 22:17:04;;;;;;;;;;;;;;;21.69;50.19;95945.88;10466894;28;1476;-68
2023/05/24 22:22:04;;;;;;;;;;;;;;;21.68;50.16;95949.56;10482691;28;1910;-68
2023/05/24 22:27:08;;;;;;;;;;;;;;;21.67;50.03;95948.00;10476266;28;1568;-68
2023/05/24 22:32:08;;;;;;;;;;;;;;;21.66;50.04;95949.84;10455542;28;2202;-68
2023/05/24 22:37:08;;;;;;;;;;;;;;;21.65;50.19;95956.19;10473780;28;1883;-66
2023/05/24 22:42:09;;;;;;;;;;;;;;;21.65;49.79;95952.75;10472435;28;4555;-68
2023/05/24 22:47:12;;;;;;;;;;;;;;;21.63;49.83;95952.25;10474876;28;1824;-69
2023/05/24 22:52:13;;;;;;;;;;;;;;;21.63;49.84;95947.75;10472270;28;1949;-68
2023/05/24 22:57:14;;;;;;;;;;;;;;;21.63;49.95;95947.75;10450767;28;1852;-67
2023/05/24 23:02:15;;;;;;;;;;;;;;;21.63;49.73;95931.13;10473459;28;1993;-67
2023/05/24 23:07:15;;;;;;;;;;;;;;;21.62;49.60;95942.75;10477425;28;1832;-67
2023/05/24 23:12:17;;;;;;;;;;;;;;;21.62;49.77;95948.00;10472408;28;1868;-67
2023/05/24 23:17:19;;;;;;;;;;;;;;;21.62;49.48;95940.09;10475928;28;1840;-67
2023/05/24 23:22:22;;;;;;;;;;;;;;;21.60;49.49;95936.94;10473511;28;1975;-67
2023/05/24 23:27:22;;;;;;;;;;;;;;;21.60;49.49;95926.41;10480334;28;2160;-67
2023/05/24 23:32:22;;;;;;;;;;;;;;;21.58;49.62;95934.59;10477620;28;1832;-67
2023/05/24 23:37:23;;;;;;;;;;;;;;;21.59;49.55;95936.19;10478672;28;1860;-67
2023/05/24 23:42:23;;;;;;;;;;;;;;;21.59;49.44;95935.38;10451288;28;4689;-67
2023/05/24 23:47:23;;;;;;;;;;;;;;;21.57;49.61;95935.66;10477605;28;1842;-68
2023/05/24 23:52:23;;;;;;;;;;;;;;;21.56;49.54;95936.72;10475703;28;1876;-67
2023/05/24 23:57:24;;;;;;;;;;;;;;;21.55;49.23;95935.16;10478825;28;1931;-67
